Time;durP1;ratioP1;P1;durP2;ratioP2;P2;SDS_P1;SDS_P2;PMS_P1;PMS_P2;Temp;Humidity;BMP_temperature;BMP_pressure;BME280_temperature;BME280_humidity;BME280_pressure;Samples;Min_cycle;Max_cycle;Signal;HPM_P1;HPM_P2
2023/10/04 00:02:17;;;;;;;;;;;;;;;22.93;45.69;100266.94;4478191;32;33781;-77
2023/10/04 00:04:44;;;;;;;;;;;;;;;22.37;46.96;100270.31;4476638;32;34911;-72
2023/10/04 00:07:12;;;;;;;;;;;;;;;23.22;44.70;100258.19;4479069;32;33974;-74
2023/10/04 00:09:39;;;;;;;;;;;;;;;23.27;44.49;100251.13;4471006;32;34233;-70
2023/10/04 00:12:08;;;;;;;;;;;;;;;22.99;45.04;100254.63;4471605;32;33412;-77
2023/10/04 00:14:35;;;;;;;;;;;;;;;22.77;45.92;100262.50;4475198;32;33816;-71
2023/10/04 00:17:03;;;;;;;;;;;;;;;22.10;47.69;100274.53;4472377;32;33849;-73
2023/10/04 00:19:32;;;;;;;;;;;;;;;22.64;46.35;100268.63;4473875;32;34863;-73
2023/10/04 00:21:59;;;;;;;;;;;;;;;22.60;46.27;100259.81;4481077;32;34020;-75
2023/10/04 00:24:26;;;;;;;;;;;;;;;22.34;46.87;100275.56;4474465;32;34197;-74
2023/10/04 00:26:54;;;;;;;;;;;;;;;22.22;47.42;100270.19;4477973;32;35050;-74
2023/10/04 00:29:21;;;;;;;;;;;;;;;22.93;45.58;100266.94;4472779;32;34768;-74
2023/10/04 00:31:49;;;;;;;;;;;;;;;22.49;47.16;100272.97;4481076;32;33187;-72
2023/10/04 00:34:16;;;;;;;;;;;;;;;22.79;45.98;100273.94;4473474;32;34899;-74
2023/10/04 00:36:44;;;;;;;;;;;;;;;23.52;44.39;100273.16;4478514;32;34186;-72
2023/10/04 00:39:13;;;;;;;;;;;;;;;22.96;45.62;100281.91;4452138;32;32062;-74
2023/10/04 00:41:42;;;;;;;;;;;;;;;22.83;46.05;100281.03;4473119;32;33506;-72
2023/10/04 00:44:10;;;;;;;;;;;;;;;22.87;46.06;100293.34;4475695;32;34960;-71
2023/10/04 00:46:45;;;;;;;;;;;;;;;22.63;46.55;100288.88;4475367;32;33780;-70
2023/10/04 00:49:12;;;;;;;;;;;;;;;23.25;44.85;100279.31;4478998;32;33768;-75
2023/10/04 00:51:40;;;;;;;;;;;;;;;22.86;46.05;100295.97;4475147;32;33401;-75
2023/10/04 00:54:07;;;;;;;;;;;;;;;22.45;47.20;100302.00;4472366;32;33694;-72
2023/10/04 00:56:38;;;;;;;;;;;;;;;22.86;45.76;100302.13;4474988;32;34174;-75
2023/10/04 00:59:07;;;;;;;;;;;;;;;23.49;44.38;100301.37;4478019;32;34018;-76
2023/10/04 01:01:40;;;;;;;;;;;;;;;22.86;45.82;100304.78;4475270;32;33270;-75
2023/10/04 01:04:08;;;;;;;;;;;;;;;22.90;45.25;100293.34;4471844;32;34037;-78
2023/10/04 01:06:36;;;;;;;;;;;;;;;23.16;44.56;100295.19;4461130;32;34201;-73
2023/10/04 01:09:05;;;;;;;;;;;;;;;23.56;43.82;100295.19;4478148;32;33878;-75
2023/10/04 01:11:35;;;;;;;;;;;;;;;22.80;46.01;100290.69;4480707;32;32746;-72
2023/10/04 01:14:09;;;;;;;;;;;;;;;22.78;46.22;100288.03;4479475;32;35358;-75
2023/10/04 01:16:41;;;;;;;;;;;;;;;22.37;47.04;100301.97;4471932;32;34726;-73
2023/10/04 01:19:13;;;;;;;;;;;;;;;22.64;46.23;100295.00;4478774;32;34116;-73
2023/10/04 01:21:41;;;;;;;;;;;;;;;23.20;44.98;100294.31;4475280;32;33671;-74
2023/10/04 01:24:09;;;;;;;;;;;;;;;22.95;45.40;100293.38;4482122;32;34673;-73
2023/10/04 01:26:37;;;;;;;;;;;;;;;23.24;45.05;100301.37;4471566;32;34207;-76
2023/10/04 01:29:08;;;;;;;;;;;;;;;23.26;44.16;100296.09;4478216;32;34212;-75
2023/10/04 01:31:36;;;;;;;;;;;;;;;23.07;44.88;100300.47;4473645;32;34254;-74
2023/10/04 01:34:04;;;;;;;;;;;;;;;23.04;45.29;100306.59;4464462;32;33876;-74
2023/10/04 01:36:32;;;;;;;;;;;;;;;23.33;44.78;100297.84;4474403;32;33828;-76
2023/10/04 01:39:00;;;;;;;;;;;;;;;23.33;44.91;100301.37;4477380;32;33898;-74
2023/10/04 01:41:28;;;;;;;;;;;;;;;23.47;44.49;100306.66;4480728;32;33644;-77
2023/10/04 01:44:00;;;;;;;;;;;;;;;23.48;44.12;100311.06;4471882;32;34045;-76
2023/10/04 01:46:28;;;;;;;;;;;;;;;23.63;43.67;100307.53;4474588;32;34302;-75
2023/10/04 01:48:56;;;;;;;;;;;;;;;23.41;44.15;100305.78;4474988;32;34803;-74
2023/10/04 01:51:26;;;;;;;;;;;;;;;23.45;43.71;100304.87;4473735;32;33464;-75
2023/10/04 01:53:57;;;;;;;;;;;;;;;23.36;44.70;100316.34;4469860;32;34153;-74
2023/10/04 01:56:25;;;;;;;;;;;;;;;24.05;43.67;100324.28;4475751;32;34253;-76
2023/10/04 01:58:54;;;;;;;;;;;;;;;24.29;43.84;100325.09;4483584;32;34229;-75
2023/10/04 02:01:22;;;;;;;;;;;;;;;24.65;43.92;100334.72;4460011;32;33201;-75
2023/10/04 02:03:50;;;;;;;;;;;;;;;24.77;44.10;100328.47;4479129;32;34843;-73
2023/10/04 02:06:17;;;;;;;;;;;;;;;25.06;43.88;100330.94;4478585;32;34257;-75
2023/10/04 02:08:45;;;;;;;;;;;;;;;25.09;43.89;100330.94;4471879;32;34184;-76
2023/10/04 02:11:13;;;;;;;;;;;;;;;25.09;43.81;100336.25;4478765;32;34066;-73
2023/10/04 02:13:42;;;;;;;;;;;;;;;25.16;43.33;100334.44;4470392;32;34520;-77
2023/10/04 02:16:16;;;;;;;;;;;;;;;24.40;44.46;100328.59;4473153;32;33900;-71
2023/10/04 02:18:43;;;;;;;;;;;;;;;24.29;44.69;100330.41;4478078;32;34233;-76
2023/10/04 02:21:11;;;;;;;;;;;;;;;23.71;45.89;100331.34;4470120;32;32814;-76
2023/10/04 02:23:39;;;;;;;;;;;;;;;23.19;46.93;100348.03;4480967;32;34550;-75
2023/10/04 02:26:07;;;;;;;;;;;;;;;23.62;45.85;100339.28;4478353;32;34091;-76
2023/10/04 02:28:34;;;;;;;;;;;;;;;23.95;44.97;100346.31;4477959;32;34208;-75
2023/10/04 02:31:02;;;;;;;;;;;;;;;24.07;44.55;100351.63;4476604;32;33266;-73
2023/10/04 02:33:33;;;;;;;;;;;;;;;24.07;44.54;100341.03;4473541;32;34963;-73
2023/10/04 02:36:02;;;;;;;;;;;;;;;24.12;44.56;100355.13;4472363;32;34943;-73
2023/10/04 02:38:34;;;;;;;;;;;;;;;24.08;44.67;100363.09;4476188;32;34642;-73
2023/10/04 02:41:05;;;;;;;;;;;;;;;24.55;43.82;100369.16;4481292;32;33368;-75
2023/10/04 02:43:33;;;;;;;;;;;;;;;24.49;43.88;100370.03;4481104;32;33727;-79
2023/10/04 02:46:00;;;;;;;;;;;;;;;24.69;43.71;100383.25;4476821;32;34293;-77
2023/10/04 02:48:30;;;;;;;;;;;;;;;24.63;43.73;100391.25;4471761;32;34675;-74
2023/10/04 02:50:58;;;;;;;;;;;;;;;24.36;44.30;100390.41;4478133;32;35072;-74
2023/10/04 02:53:26;;;;;;;;;;;;;;;24.12;44.98;100392.16;4476565;32;34177;-76
2023/10/04 02:55:56;;;;;;;;;;;;;;;23.81;45.78;100393.09;4478317;32;34183;-74
2023/10/04 02:58:24;;;;;;;;;;;;;;;23.23;47.16;100391.22;4479184;32;34220;-75
2023/10/04 03:00:51;;;;;;;;;;;;;;;23.45;46.42;100413.28;4475426;32;33291;-75
2023/10/04 03:03:19;;;;;;;;;;;;;;;23.45;46.43;100402.72;4468220;32;33797;-75
2023/10/04 03:05:47;;;;;;;;;;;;;;;23.60;46.04;100405.38;4475591;32;33810;-75
2023/10/04 03:08:17;;;;;;;;;;;;;;;23.82;45.41;100408.09;4483948;32;34870;-72
2023/10/04 03:10:49;;;;;;;;;;;;;;;23.91;45.15;100418.66;4481364;32;34037;-75
2023/10/04 03:13:22;;;;;;;;;;;;;;;23.19;46.56;100408.81;4465061;32;33955;-74
2023/10/04 03:15:52;;;;;;;;;;;;;;;23.22;46.59;100427.34;4459223;32;34675;-72
2023/10/04 03:18:20;;;;;;;;;;;;;;;23.53;46.02;100424.78;4481313;32;34273;-77
2023/10/04 03:21:28;;;;;;;;;;;;;;;23.69;45.58;100420.37;4477439;32;33476;-74
2023/10/04 03:23:43;;;;;;;;;;;;;;;24.28;44.27;100421.28;4468116;32;33449;-73
2023/10/04 03:26:12;;;;;;;;;;;;;;;24.26;44.06;100436.28;4433526;32;33629;-72
2023/10/04 03:28:40;;;;;;;;;;;;;;;24.43;43.64;100439.78;4465737;32;34575;-75
2023/10/04 03:31:12;;;;;;;;;;;;;;;24.12;44.35;100442.47;4476768;32;33427;-74
2023/10/04 03:33:41;;;;;;;;;;;;;;;24.03;44.53;100439.84;4482671;32;34781;-74
2023/10/04 03:36:09;;;;;;;;;;;;;;;24.23;44.10;100441.59;4470196;32;34652;-74
2023/10/04 03:38:36;;;;;;;;;;;;;;;24.22;44.26;100445.09;4474548;32;34037;-72
2023/10/04 03:41:04;;;;;;;;;;;;;;;24.29;43.85;100452.16;4462578;32;31732;-77
2023/10/04 03:43:35;;;;;;;;;;;;;;;24.02;44.33;100453.06;4476783;32;35038;-71
2023/10/04 03:46:18;;;;;;;;;;;;;;;23.70;45.00;100446.84;4471321;32;34475;-74
2023/10/04 03:48:47;;;;;;;;;;;;;;;23.22;46.22;100468.72;4472516;32;34307;-72
2023/10/04 03:51:19;;;;;;;;;;;;;;;23.58;45.28;100453.87;4457645;32;33579;-75
2023/10/04 03:53:49;;;;;;;;;;;;;;;24.04;44.04;100462.75;4470688;32;33922;-75
2023/10/04 03:56:18;;;;;;;;;;;;;;;24.08;43.72;100448.62;4481677;32;34083;-74
2023/10/04 03:58:48;;;;;;;;;;;;;;;23.84;44.06;100470.69;4476748;32;34790;-74
2023/10/04 04:01:17;;;;;;;;;;;;;;;24.18;43.24;100468.06;4474475;32;33111;-78
2023/10/04 04:03:44;;;;;;;;;;;;;;;23.66;44.17;100482.09;4472515;32;34976;-76
2023/10/04 04:06:12;;;;;;;;;;;;;;;23.51;44.31;100492.66;4482514;32;34856;-74
2023/10/04 04:08:39;;;;;;;;;;;;;;;23.69;43.80;100497.97;4479955;32;34698;-79
2023/10/04 04:11:07;;;;;;;;;;;;;;;24.01;42.85;100499.84;4481237;32;34077;-77
2023/10/04 04:13:35;;;;;;;;;;;;;;;23.91;42.65;100511.25;4473127;32;35241;-71
2023/10/04 04:16:09;;;;;;;;;;;;;;;23.65;43.00;100514.72;4475705;32;34720;-75
2023/10/04 04:18:38;;;;;;;;;;;;;;;23.34;43.38;100503.16;4482845;32;33277;-73
2023/10/04 04:21:05;;;;;;;;;;;;;;;23.40;43.44;100512.88;4479031;32;33663;-72
2023/10/04 04:23:34;;;;;;;;;;;;;;;23.15;44.09;100520.69;4473533;32;33400;-77
2023/10/04 04:26:05;;;;;;;;;;;;;;;23.84;42.58;100510.38;4471580;32;34941;-74
2023/10/04 04:28:36;;;;;;;;;;;;;;;24.19;41.79;100509.53;4469696;32;34691;-70
2023/10/04 04:31:09;;;;;;;;;;;;;;;24.16;41.92;100508.66;4474037;32;33856;-74
2023/10/04 04:33:37;;;;;;;;;;;;;;;23.81;42.40;100512.13;4479777;32;33972;-76
2023/10/04 04:36:19;;;;;;;;;;;;;;;23.44;43.42;100533.16;4480200;32;34944;-75
2023/10/04 04:38:47;;;;;;;;;;;;;;;23.55;43.05;100532.31;4478400;32;34810;-75
2023/10/04 04:41:21;;;;;;;;;;;;;;;23.09;44.09;100533.88;4480667;32;33384;-75
2023/10/04 04:43:49;;;;;;;;;;;;;;;23.15;43.88;100536.56;4472409;32;34166;-74
2023/10/04 04:46:18;;;;;;;;;;;;;;;22.48;45.32;100547.50;4481517;32;35113;-72
2023/10/04 04:48:46;;;;;;;;;;;;;;;22.77;44.61;100550.38;4478472;32;34155;-75
2023/10/04 04:51:14;;;;;;;;;;;;;;;23.17;43.99;100545.37;4479265;32;33186;-73
2023/10/04 04:53:43;;;;;;;;;;;;;;;23.59;43.13;100557.00;4472210;32;33637;-74
2023/10/04 04:56:18;;;;;;;;;;;;;;;23.47;43.14;100554.31;4461502;32;33331;-74
2023/10/04 04:58:51;;;;;;;;;;;;;;;23.97;42.08;100565.97;4480466;32;34596;-71
2023/10/04 05:01:18;;;;;;;;;;;;;;;23.98;41.98;100560.69;4480109;32;34094;-73
2023/10/04 05:03:47;;;;;;;;;;;;;;;23.27;43.76;100563.03;4469962;32;33875;-73
2023/10/04 05:06:22;;;;;;;;;;;;;;;23.50;43.22;100575.47;4478563;32;34290;-77
2023/10/04 05:08:50;;;;;;;;;;;;;;;23.65;42.66;100572.03;4476518;32;34589;-76
2023/10/04 05:11:18;;;;;;;;;;;;;;;23.68;42.38;100579.94;4476077;32;34811;-72
2023/10/04 05:13:46;;;;;;;;;;;;;;;23.15;43.48;100573.53;4475187;32;34193;-72
2023/10/04 05:16:13;;;;;;;;;;;;;;;23.22;43.31;100585.94;4481483;32;34451;-76
2023/10/04 05:18:41;;;;;;;;;;;;;;;23.48;43.10;100590.47;4477702;32;33715;-71
2023/10/04 05:21:10;;;;;;;;;;;;;;;23.85;42.03;100590.63;4474091;32;32893;-73
2023/10/04 05:23:38;;;;;;;;;;;;;;;23.43;42.64;100585.16;4473212;32;34119;-75
2023/10/04 05:26:08;;;;;;;;;;;;;;;23.68;42.20;100582.59;4473868;32;34341;-73
2023/10/04 05:28:35;;;;;;;;;;;;;;;23.93;41.63;100596.81;4475769;32;34435;-73
2023/10/04 05:31:03;;;;;;;;;;;;;;;23.35;42.79;100593.06;4473886;32;33357;-70
2023/10/04 05:33:30;;;;;;;;;;;;;;;22.46;44.45;100589.72;4475055;32;33952;-71
2023/10/04 05:36:01;;;;;;;;;;;;;;;22.40;44.81;100608.16;4470173;32;34153;-75
2023/10/04 05:38:29;;;;;;;;;;;;;;;22.73;43.91;100610.19;4477807;32;32896;-75
2023/10/04 05:40:57;;;;;;;;;;;;;;;22.32;44.66;100631.84;4473554;32;33352;-73
2023/10/04 05:43:25;;;;;;;;;;;;;;;22.75;43.87;100636.63;4472552;32;33136;-75
2023/10/04 05:45:52;;;;;;;;;;;;;;;22.78;42.90;100641.94;4471908;32;33597;-71
2023/10/04 05:48:20;;;;;;;;;;;;;;;22.07;43.98;100645.62;4475247;32;34152;-75
2023/10/04 05:50:54;;;;;;;;;;;;;;;21.89;43.54;100656.84;4480580;32;33971;-75
2023/10/04 05:53:21;;;;;;;;;;;;;;;22.72;41.65;100653.34;4476267;32;34744;-75
2023/10/04 05:55:49;;;;;;;;;;;;;;;22.55;41.48;100650.56;4471765;32;34764;-70
2023/10/04 05:58:17;;;;;;;;;;;;;;;22.25;40.80;100639.69;4477821;32;33811;-72
2023/10/04 06:00:51;;;;;;;;;;;;;;;22.06;41.02;100654.37;4472159;32;33173;-77
2023/10/04 06:03:20;;;;;;;;;;;;;;;22.54;39.72;100643.50;4479904;32;34664;-74
2023/10/04 06:05:48;;;;;;;;;;;;;;;22.15;40.01;100660.66;4460671;32;34373;-73
2023/10/04 06:08:16;;;;;;;;;;;;;;;22.14;39.85;100668.56;4476186;32;33954;-73
2023/10/04 06:10:43;;;;;;;;;;;;;;;22.23;39.69;100673.94;4470699;32;33055;-74
2023/10/04 06:13:13;;;;;;;;;;;;;;;22.68;39.05;100699.09;4468237;32;34184;-74
2023/10/04 06:15:44;;;;;;;;;;;;;;;22.32;39.09;100694.31;4471815;32;33125;-73
2023/10/04 06:18:12;;;;;;;;;;;;;;;22.58;38.73;100702.53;4475544;32;34489;-77
2023/10/04 06:20:40;;;;;;;;;;;;;;;22.27;39.01;100714.47;4475469;32;33623;-74
2023/10/04 06:23:09;;;;;;;;;;;;;;;22.69;38.32;100718.47;4480645;32;34530;-76
2023/10/04 06:25:41;;;;;;;;;;;;;;;23.17;37.55;100730.38;4472793;32;34326;-72
2023/10/04 06:28:11;;;;;;;;;;;;;;;23.04;37.17;100725.84;4469093;32;34304;-74
2023/10/04 06:30:39;;;;;;;;;;;;;;;23.42;36.42;100741.13;4472978;32;33829;-74
2023/10/04 06:33:07;;;;;;;;;;;;;;;23.67;36.20;100731.59;4471439;32;34161;-71
2023/10/04 06:35:37;;;;;;;;;;;;;;;23.46;36.07;100746.44;4461722;32;34872;-76
2023/10/04 06:38:06;;;;;;;;;;;;;;;23.47;36.34;100752.63;4479218;32;33892;-74
2023/10/04 06:40:34;;;;;;;;;;;;;;;23.94;35.90;100746.78;4475289;32;33081;-75
2023/10/04 06:43:04;;;;;;;;;;;;;;;23.67;35.65;100748.34;4470442;32;34929;-74
2023/10/04 06:45:32;;;;;;;;;;;;;;;24.10;34.75;100764.50;4474161;32;34364;-76
2023/10/04 06:48:00;;;;;;;;;;;;;;;23.89;35.25;100756.44;4471540;32;34662;-72
2023/10/04 06:50:28;;;;;;;;;;;;;;;23.68;36.00;100763.38;4470814;32;32490;-73
2023/10/04 06:52:59;;;;;;;;;;;;;;;23.63;35.96;100749.22;4470180;32;33660;-74
2023/10/04 06:55:26;;;;;;;;;;;;;;;23.73;35.84;100752.81;4460026;32;33287;-70
2023/10/04 06:57:55;;;;;;;;;;;;;;;22.70;36.83;100736.09;4480801;32;33914;-75
2023/10/04 07:00:35;;;;;;;;;;;;;;;22.63;37.43;100747.44;4481252;32;34011;-72
2023/10/04 07:03:04;;;;;;;;;;;;;;;22.86;37.29;100751.19;4470371;32;34610;-71
2023/10/04 07:05:35;;;;;;;;;;;;;;;22.96;37.19;100742.47;4457742;32;32478;-74
2023/10/04 07:08:04;;;;;;;;;;;;;;;22.73;37.81;100746.66;4480294;32;35084;-71
2023/10/04 07:10:32;;;;;;;;;;;;;;;22.76;37.61;100758.16;4479633;32;33272;-73
2023/10/04 07:13:00;;;;;;;;;;;;;;;22.90;37.48;100758.28;4462573;32;34245;-73
2023/10/04 07:15:28;;;;;;;;;;;;;;;22.94;37.35;100765.38;4474614;32;33765;-72
2023/10/04 07:17:56;;;;;;;;;;;;;;;23.03;37.42;100775.19;4482686;32;34988;-75
2023/10/04 07:20:26;;;;;;;;;;;;;;;22.93;37.72;100768.91;4459849;32;32850;-75
2023/10/04 07:23:03;;;;;;;;;;;;;;;22.53;38.39;100763.19;4463030;32;34444;-72
2023/10/04 07:25:31;;;;;;;;;;;;;;;22.01;39.77;100753.72;4481405;32;34778;-73
2023/10/04 07:28:01;;;;;;;;;;;;;;;22.13;39.19;100752.09;4458492;32;34325;-75
2023/10/04 07:30:29;;;;;;;;;;;;;;;21.95;39.73;100743.97;4480117;32;33339;-74
2023/10/04 07:32:59;;;;;;;;;;;;;;;21.84;40.19;100746.44;4460848;32;33585;-71
2023/10/04 07:35:28;;;;;;;;;;;;;;;21.90;39.90;100753.56;4480999;32;34178;-73
2023/10/04 07:37:57;;;;;;;;;;;;;;;22.15;39.55;100784.69;4458277;32;33408;-75
2023/10/04 07:40:27;;;;;;;;;;;;;;;22.77;38.74;100807.47;4466412;32;33358;-74
2023/10/04 07:42:55;;;;;;;;;;;;;;;22.68;38.91;100831.13;4464067;32;34983;-74
2023/10/04 07:45:25;;;;;;;;;;;;;;;23.17;38.02;100820.22;4477681;32;34206;-74
2023/10/04 07:47:53;;;;;;;;;;;;;;;23.33;37.33;100827.44;4471281;32;33922;-75
2023/10/04 07:50:25;;;;;;;;;;;;;;;23.91;36.34;100800.59;4479790;32;33341;-72
2023/10/04 07:52:54;;;;;;;;;;;;;;;23.30;37.77;100790.41;4477309;32;34111;-75
2023/10/04 07:55:24;;;;;;;;;;;;;;;23.75;36.69;100799.53;4478597;32;33881;-74
2023/10/04 07:57:53;;;;;;;;;;;;;;;23.67;36.92;100806.53;4463269;32;34269;-75
2023/10/04 08:00:20;;;;;;;;;;;;;;;24.11;36.24;100808.62;4478528;32;34214;-73
2023/10/04 08:02:51;;;;;;;;;;;;;;;24.23;36.52;100801.62;4450528;32;33530;-72
2023/10/04 08:05:24;;;;;;;;;;;;;;;24.01;36.23;100803.25;4468712;32;33774;-77
2023/10/04 08:07:53;;;;;;;;;;;;;;;24.09;36.48;100805.09;4471250;32;34222;-72
2023/10/04 08:10:25;;;;;;;;;;;;;;;24.12;36.16;100810.37;4477285;32;33289;-76
2023/10/04 08:12:54;;;;;;;;;;;;;;;24.10;36.26;100817.44;4472849;32;33793;-73
2023/10/04 08:15:23;;;;;;;;;;;;;;;24.34;35.90;100815.81;4470825;32;34213;-74
2023/10/04 08:17:52;;;;;;;;;;;;;;;24.31;36.06;100826.38;4474953;32;34198;-77
2023/10/04 08:20:24;;;;;;;;;;;;;;;24.10;36.25;100817.44;4480305;32;34049;-73
2023/10/04 08:22:51;;;;;;;;;;;;;;;23.86;36.69;100825.25;4470373;32;34708;-77
2023/10/04 08:25:20;;;;;;;;;;;;;;;23.99;36.82;100827.09;4476176;32;35012;-72
2023/10/04 08:27:48;;;;;;;;;;;;;;;24.38;36.52;100820.22;4470355;32;34052;-75
2023/10/04 08:30:16;;;;;;;;;;;;;;;23.95;36.80;100827.91;4474555;32;32144;-75
2023/10/04 08:32:46;;;;;;;;;;;;;;;24.26;36.60;100828.09;4471089;32;34593;-72
2023/10/04 08:35:33;;;;;;;;;;;;;;;24.13;37.12;100849.22;4469800;32;34128;-74
2023/10/04 08:38:04;;;;;;;;;;;;;;;24.43;36.25;100846.72;4457007;32;32525;-74
2023/10/04 08:40:32;;;;;;;;;;;;;;;24.56;36.08;100831.81;4479239;32;32442;-72
2023/10/04 08:42:59;;;;;;;;;;;;;;;24.59;35.96;100834.47;4461216;32;34257;-75
2023/10/04 08:45:33;;;;;;;;;;;;;;;23.81;37.14;100826.97;4469019;32;33814;-74
2023/10/04 08:48:01;;;;;;;;;;;;;;;23.91;37.25;100826.13;4472996;32;33813;-72
2023/10/04 08:50:34;;;;;;;;;;;;;;;24.11;36.67;100837.75;4471646;32;34213;-74
2023/10/04 08:53:03;;;;;;;;;;;;;;;24.33;36.33;100835.19;4467328;32;34150;-75
2023/10/04 08:55:32;;;;;;;;;;;;;;;24.40;36.29;100844.06;4463101;32;34195;-76
2023/10/04 08:57:59;;;;;;;;;;;;;;;24.30;36.57;100856.38;4458568;32;34222;-76
2023/10/04 09:00:29;;;;;;;;;;;;;;;24.68;35.88;100853.03;4458508;32;33474;-75
2023/10/04 09:03:00;;;;;;;;;;;;;;;24.80;35.77;100847.81;4459106;32;34339;-74
2023/10/04 09:05:28;;;;;;;;;;;;;;;25.17;34.93;100847.88;4469555;32;33993;-79
2023/10/04 09:07:56;;;;;;;;;;;;;;;25.66;34.26;100847.94;4460075;32;34878;-74
2023/10/04 09:10:23;;;;;;;;;;;;;;;25.87;34.53;100848.81;4457167;32;33710;-75
2023/10/04 09:12:51;;;;;;;;;;;;;;;25.49;34.68;100841.75;4471061;32;34445;-71
2023/10/04 09:15:26;;;;;;;;;;;;;;;25.06;35.28;100839.03;4481947;32;34087;-72
2023/10/04 09:17:58;;;;;;;;;;;;;;;25.43;34.16;100839.97;4476914;32;34085;-74
2023/10/04 09:20:29;;;;;;;;;;;;;;;25.51;34.44;100842.62;4458011;32;31786;-76
2023/10/04 09:23:01;;;;;;;;;;;;;;;26.14;33.69;100829.31;4475311;32;34671;-72
2023/10/04 09:25:38;;;;;;;;;;;;;;;26.12;33.22;100827.56;4474658;32;33773;-73
2023/10/04 09:28:09;;;;;;;;;;;;;;;26.64;32.45;100830.03;4477993;32;34073;-74
2023/10/04 09:30:36;;;;;;;;;;;;;;;26.07;33.28;100849.66;4457434;32;32290;-77
2023/10/04 09:33:05;;;;;;;;;;;;;;;25.72;33.78;100856.78;4468470;32;33561;-76
2023/10/04 09:35:42;;;;;;;;;;;;;;;26.29;32.91;100852.28;4463967;32;32297;-73
2023/10/04 09:38:17;;;;;;;;;;;;;;;26.86;31.70;100852.94;4469316;32;35129;-76
2023/10/04 09:40:57;;;;;;;;;;;;;;;26.90;31.89;100842.31;4472236;32;33504;-72
2023/10/04 09:43:40;;;;;;;;;;;;;;;26.78;31.84;100844.13;4470048;32;34103;-77
2023/10/04 09:46:09;;;;;;;;;;;;;;;26.64;31.82;100851.31;4469650;32;33953;-73
2023/10/04 09:48:41;;;;;;;;;;;;;;;26.43;31.73;100850.47;4474832;32;33260;-75
2023/10/04 09:51:09;;;;;;;;;;;;;;;26.20;32.63;100861.16;4471659;32;34058;-72
2023/10/04 09:53:41;;;;;;;;;;;;;;;26.69;31.73;100873.41;4458014;32;34776;-74
2023/10/04 09:56:12;;;;;;;;;;;;;;;26.58;31.39;100872.53;4453396;32;33162;-74
2023/10/04 09:58:43;;;;;;;;;;;;;;;27.20;31.44;100879.34;4472010;32;34451;-76
2023/10/04 10:01:11;;;;;;;;;;;;;;;27.37;30.89;100887.25;4456257;32;33912;-74
2023/10/04 10:03:59;;;;;;;;;;;;;;;27.36;30.67;100884.59;4474903;32;34226;-75
2023/10/04 10:06:27;;;;;;;;;;;;;;;27.14;31.19;100876.72;4470955;32;35015;-73
2023/10/04 10:08:59;;;;;;;;;;;;;;;27.76;30.06;100882.50;4454060;32;34289;-76
2023/10/04 10:11:26;;;;;;;;;;;;;;;27.68;29.91;100875.47;4454925;32;33153;-72
2023/10/04 10:13:54;;;;;;;;;;;;;;;26.87;31.08;100865.34;4473517;32;34994;-73
2023/10/04 10:16:21;;;;;;;;;;;;;;;26.58;31.54;100872.53;4458902;32;35043;-73
2023/10/04 10:18:49;;;;;;;;;;;;;;;27.07;31.11;100882.97;4482888;32;33946;-72
2023/10/04 10:21:17;;;;;;;;;;;;;;;26.56;31.44;100890.25;4471387;32;33985;-73
2023/10/04 10:24:09;;;;;;;;;;;;;;;26.86;31.04;100874.22;4481763;32;34427;-71
2023/10/04 10:26:36;;;;;;;;;;;;;;;27.19;30.41;100880.22;4468940;32;34664;-73
2023/10/04 10:29:04;;;;;;;;;;;;;;;27.75;30.02;100878.06;4482418;32;35024;-73
2023/10/04 10:31:31;;;;;;;;;;;;;;;27.05;29.96;100876.78;4472505;32;33258;-72
2023/10/04 10:34:02;;;;;;;;;;;;;;;27.21;29.89;100878.44;4474023;32;34320;-73
2023/10/04 10:36:32;;;;;;;;;;;;;;;27.18;30.43;100875.81;4463814;32;33971;-76
2023/10/04 10:39:00;;;;;;;;;;;;;;;26.74;30.37;100882.25;4476706;32;34015;-74
2023/10/04 10:41:27;;;;;;;;;;;;;;;26.59;30.88;100884.97;4458387;32;33258;-73
2023/10/04 10:44:13;;;;;;;;;;;;;;;25.82;31.27;100891.25;4479288;32;33932;-73
2023/10/04 10:46:57;;;;;;;;;;;;;;;25.84;31.60;100893.91;4468673;32;34353;-75
2023/10/04 10:49:39;;;;;;;;;;;;;;;26.02;31.75;100883.31;4481228;32;34612;-71
2023/10/04 10:52:26;;;;;;;;;;;;;;;26.27;30.78;100888.59;4475364;32;32145;-72
2023/10/04 10:54:54;;;;;;;;;;;;;;;26.52;30.48;100875.22;4477271;32;34748;-73
2023/10/04 10:57:23;;;;;;;;;;;;;;;25.68;31.96;100880.66;4473956;32;34179;-74
2023/10/04 10:59:55;;;;;;;;;;;;;;;25.40;32.31;100870.91;4462268;32;35539;-71
2023/10/04 11:02:24;;;;;;;;;;;;;;;25.38;32.02;100873.59;4459718;32;32736;-74
2023/10/04 11:04:55;;;;;;;;;;;;;;;25.57;31.90;100881.53;4459917;32;34063;-75
2023/10/04 11:07:23;;;;;;;;;;;;;;;26.31;30.80;100863.78;4446667;32;34622;-74
2023/10/04 11:09:51;;;;;;;;;;;;;;;26.14;31.47;100857.66;4446173;32;34487;-75
2023/10/04 11:12:19;;;;;;;;;;;;;;;26.45;30.01;100856.66;4438673;32;33195;-75
2023/10/04 11:14:47;;;;;;;;;;;;;;;26.08;29.95;100862.06;4437767;32;34669;-72
2023/10/04 11:17:14;;;;;;;;;;;;;;;25.78;30.48;100862.06;4446452;32;33880;-74
2023/10/04 11:19:43;;;;;;;;;;;;;;;25.91;30.79;100858.56;4445859;32;34408;-74
2023/10/04 11:22:11;;;;;;;;;;;;;;;26.54;30.03;100854.84;4449740;32;33806;-74
2023/10/04 11:24:42;;;;;;;;;;;;;;;26.64;30.06;100856.63;4452026;32;34801;-72
2023/10/04 11:27:10;;;;;;;;;;;;;;;26.00;30.34;100853.25;4454335;32;33992;-75
2023/10/04 11:29:40;;;;;;;;;;;;;;;25.98;30.10;100859.41;4442065;32;34787;-77
2023/10/04 11:32:09;;;;;;;;;;;;;;;26.41;29.28;100860.22;4446810;32;32783;-72
2023/10/04 11:34:37;;;;;;;;;;;;;;;26.61;29.37;100861.94;4450781;32;34397;-75
2023/10/04 11:37:05;;;;;;;;;;;;;;;26.62;29.31;100853.97;4445793;32;33919;-71
2023/10/04 11:39:35;;;;;;;;;;;;;;;26.36;28.18;100851.34;4446937;32;34690;-71
2023/10/04 11:42:04;;;;;;;;;;;;;;;26.60;27.78;100852.22;4444665;32;33079;-74
2023/10/04 11:44:32;;;;;;;;;;;;;;;27.02;27.66;100847.53;4439900;32;33937;-72
2023/10/04 11:47:03;;;;;;;;;;;;;;;26.49;27.89;100839.81;4440773;32;35184;-73
2023/10/04 11:49:32;;;;;;;;;;;;;;;26.55;27.95;100841.56;4440828;32;33691;-74
2023/10/04 11:52:04;;;;;;;;;;;;;;;26.17;28.81;100839.03;4442129;32;33157;-71
2023/10/04 11:54:44;;;;;;;;;;;;;;;27.03;27.98;100833.34;4451449;32;33989;-74
2023/10/04 11:57:11;;;;;;;;;;;;;;;26.59;28.17;100846.00;4439286;32;34182;-75
2023/10/04 11:59:39;;;;;;;;;;;;;;;27.17;27.54;100852.75;4444700;32;33962;-73
2023/10/04 12:02:06;;;;;;;;;;;;;;;27.01;27.58;100845.78;4440397;32;32200;-72
2023/10/04 12:04:36;;;;;;;;;;;;;;;25.68;29.43;100843.50;4440927;32;34140;-75
2023/10/04 12:07:11;;;;;;;;;;;;;;;25.92;29.44;100839.06;4454444;32;34445;-73
2023/10/04 12:09:39;;;;;;;;;;;;;;;26.66;28.50;100823.81;4456009;32;33288;-71
2023/10/04 12:12:06;;;;;;;;;;;;;;;25.87;29.83;100827.56;4478901;32;33443;-73
2023/10/04 12:14:34;;;;;;;;;;;;;;;25.76;29.52;100837.31;4475238;32;33541;-75
2023/10/04 12:17:04;;;;;;;;;;;;;;;26.53;28.58;100842.47;4476751;32;34949;-75
2023/10/04 12:19:32;;;;;;;;;;;;;;;26.39;28.75;100846.06;4472672;32;34359;-71
2023/10/04 12:22:02;;;;;;;;;;;;;;;27.07;27.81;100841.28;4467530;32;33388;-71
2023/10/04 12:24:31;;;;;;;;;;;;;;;27.08;28.02;100844.81;4474064;32;32390;-71
2023/10/04 12:27:00;;;;;;;;;;;;;;;26.69;28.43;100838.84;4473965;32;33736;-73
2023/10/04 12:29:28;;;;;;;;;;;;;;;26.17;29.53;100831.94;4470454;32;33849;-73
2023/10/04 12:31:55;;;;;;;;;;;;;;;25.85;30.13;100838.19;4470964;32;33133;-71
2023/10/04 12:34:24;;;;;;;;;;;;;;;25.64;30.21;100833.78;4477844;32;34094;-72
2023/10/04 12:36:52;;;;;;;;;;;;;;;25.15;31.03;100825.78;4463880;32;34112;-73
2023/10/04 12:39:25;;;;;;;;;;;;;;;25.47;30.35;100835.56;4474449;32;32806;-76
2023/10/04 12:41:55;;;;;;;;;;;;;;;25.88;29.91;100827.56;4459710;32;33576;-70
2023/10/04 12:44:23;;;;;;;;;;;;;;;26.01;29.56;100833.75;4468961;32;33493;-74
2023/10/04 12:46:50;;;;;;;;;;;;;;;25.69;29.90;100831.09;4471569;32;34713;-70
2023/10/04 12:49:18;;;;;;;;;;;;;;;26.16;29.00;100829.31;4468310;32;34158;-73